Station: Tasman Island  

  Atmospheric Gas Attenuation - ITU Rec 676-11   ----------------- dB/100km -----------------
Date Time Temp RH % AH g/m3 Dew Point Wind Direction Speed kph Gust kph Barometer mB Rainfall Since 9am 24GHz 47GHz 76GHz 122GHz 134GHz 241GHz
01/09 01:20 9.6 74 6.78 5.2 0 6 1018.4 0 15.9 24.3 34.7 90.8 79.7 272.2
01/09 01:10 10 73 6.86 5.4 4 15 1018.5 0 16.0 24.4 34.9 91.1 80.3 274.5
01/09 01:00 9.5 75 6.83 5.3 4 15 1018.6 0 16.0 24.5 35.0 91.4 80.4 274.9
01/09 00:50 9.6 77 7.06 5.8 0 0 1018.6 0 16.5 24.8 35.8 93.8 83.4 285.2
01/09 00:40 10 76 7.14 6 6 13 1018.9 0 16.6 24.8 36.0 94.2 84.0 287.5
01/09 00:30 10.2 76 7.23 6.2 0 13 1019.1 0 16.8 24.9 36.3 94.9 85.0 291.0
01/09 00:20 10.2 75 7.14 6 0 0 1019.3 0 16.6 24.8 35.9 94.0 83.8 286.9
01/09 00:10 10.5 73 7.08 5.9 2 13 1019.5 0 16.5 24.6 35.6 93.0 82.7 283.1
01/09 00:00 10.5 72 6.98 5.7 2 13 1019.6 0 16.3 24.5 35.2 91.9 81.4 278.5
31/08 23:50 10.2 72 6.85 5.4 0 0 1019.6 0 16.0 24.3 34.8 90.9 80.0 273.6
31/08 23:40 10.4 71 6.84 5.4 4 11 1019.8 0 16.0 24.3 34.7 90.6 79.7 272.5
31/08 23:30 10.6 69 6.74 5.2 0 0 1020 0 15.8 24.1 34.2 89.3 78.2 267.3
31/08 23:20 10.8 68 6.72 5.1 0 0 1020.2 0 15.7 24.0 34.0 88.9 77.8 265.8
31/08 23:10 10.9 68 6.77 5.2 0 0 1020.6 0 15.8 24.1 34.2 89.4 78.4 267.8
31/08 23:00 10.8 67 6.62 4.9 0 0 1020.8 0 15.5 23.8 33.7 87.9 76.5 261.4
31/08 22:50 11 67 6.71 5.1 0 0 1020.9 0 15.7 23.9 33.9 88.7 77.5 264.8
31/08 22:40 10.9 67 6.67 5 0 0 1021 0 15.6 23.9 33.8 88.4 77.1 263.4
31/08 22:30 11.1 66 6.65 5 0 0 1021.2 0 15.5 23.8 33.7 88.0 76.7 261.9
31/08 22:20 11.2 65 6.59 4.9 0 0 1021.4 0 15.4 23.7 33.4 87.3 75.8 258.9
31/08 22:10 11.4 64 6.57 4.8 0 0 1021.5 0 15.4 23.6 33.3 86.8 75.4 257.4
31/08 22:00 11.3 64 6.53 4.7 0 0 1021.5 0 15.3 23.6 33.1 86.5 75.0 255.9
31/08 21:50 11.3 64 6.53 4.7 0 0 1021.6 0 15.3 23.6 33.2 86.5 75.0 255.9
31/08 21:40 11.5 63 6.51 4.7 0 0 1021.7 0 15.2 23.5 33.0 86.1 74.5 254.4
31/08 21:30 11.4 63 6.47 4.6 0 0 1021.8 0 15.1 23.5 32.9 85.8 74.1 253.0
31/08 21:20 11.6 65 6.76 5.3 0 0 1021.8 0 15.8 23.9 33.9 88.6 77.6 265.3
31/08 21:10 11.4 63 6.47 4.6 0 0 1021.9 0 15.1 23.5 32.9 85.8 74.1 253.0
31/08 21:00 11.3 64 6.53 4.7 0 0 1021.8 0 15.3 23.6 33.2 86.6 75.0 256.0
31/08 20:50 11 67 6.71 5.1 0 0 1021.8 0 15.7 24.0 34.0 88.8 77.6 265.0
31/08 20:40 10.3 80 7.66 7 0 0 1021.9 0 17.7 25.7 38.1 99.7 90.8 311.4
31/08 20:30 10.7 81 7.96 7.6 0 0 1022.1 0 18.4 26.1 39.1 102.5 94.4 324.0
31/08 20:20 10.4 74 7.13 6 0 0 1022.1 0 16.6 24.8 35.9 93.9 83.7 286.3
31/08 20:10 10.7 85 8.35 8.3 2 13 1022.3 0 19.2 26.7 40.8 106.9 99.7 342.7
31/08 20:00 10.4 83 8 7.6 0 0 1022.4 0 18.5 26.3 39.5 103.4 95.3 327.2
31/08 19:50 10.8 83 8.21 8 4 11 1022.4 0 18.9 26.5 40.1 105.2 97.7 335.6
31/08 19:40 10.7 86 8.45 8.5 9 15 1022.5 0 19.4 26.9 41.2 108.0 101.1 347.6
31/08 19:30 10.8 86 8.5 8.6 7 15 1022.7 0 19.5 27.0 41.4 108.4 101.7 349.6
31/08 19:20 10.8 85 8.4 8.4 9 19 1022.7 0 19.3 26.8 40.9 107.3 100.3 344.8
31/08 19:10 10.9 84 8.36 8.3 11 17 1022.7 0 19.2 26.7 40.7 106.7 99.7 342.4
31/08 19:00 10.8 83 8.21 8 13 19 1022.7 0 18.9 26.5 40.1 105.2 97.7 335.7
31/08 18:50 10.8 81 8.01 7.7 15 20 1022.7 0 18.5 26.2 39.3 103.0 95.0 326.1
31/08 18:40 10.8 78 7.71 7.1 15 20 1022.7 0 17.8 25.7 38.1 99.7 91.0 312.0
31/08 18:30 11 77 7.71 7.1 15 20 1022.8 0 17.8 25.6 38.0 99.5 90.7 311.2
31/08 18:20 10.9 74 7.36 6.5 11 17 1022.8 0 17.1 25.1 36.6 95.8 86.2 295.3
31/08 18:10 10.9 75 7.46 6.6 7 15 1022.8 0 17.3 25.2 37.0 96.9 87.5 299.9
31/08 18:00 11.2 66 6.69 5.1 11 17 1022.9 0 15.6 23.9 33.9 88.4 77.2 263.7
31/08 17:50 11.2 67 6.79 5.3 7 19 1022.9 0 15.8 24.1 34.3 89.5 78.5 268.2
31/08 17:40 11.1 71 7.15 6 17 20 1022.9 0 16.6 24.7 35.7 93.4 83.2 284.9
31/08 17:30 11.3 80 8.16 8 17 22 1022.9 0 18.8 26.3 39.7 104.0 96.4 331.2
31/08 17:20 11.3 75 7.65 7 15 22 1022.9 0 17.7 25.4 37.6 98.5 89.6 307.2
31/08 17:10 11.4 68 6.98 5.7 13 22 1022.9 0 16.2 24.3 34.9 91.2 80.7 276.1
31/08 17:00 11.4 66 6.78 5.3 17 22 1022.9 0 15.8 24.0 34.1 89.1 78.1 267.1
31/08 16:50 11.2 67 6.79 5.3 17 22 1023 0 15.8 24.1 34.3 89.5 78.5 268.2
31/08 16:40 11.1 73 7.35 6.5 17 22 1023.1 0 17.0 25.0 36.5 95.5 85.9 294.2
31/08 16:30 11.1 76 7.66 7 17 20 1023.1 0 17.7 25.5 37.8 98.8 90.0 308.5
31/08 16:20 11.4 76 7.8 7.3 15 20 1023.1 0 18.0 25.7 38.2 100.0 91.5 313.9
31/08 16:10 11.4 76 7.8 7.3 15 20 1023.2 0 18.0 25.7 38.2 100.0 91.5 313.9
31/08 16:00 11.9 75 7.94 7.6 13 20 1023.3 0 18.3 25.8 38.5 100.9 92.8 318.5
31/08 15:50 12.4 81 8.85 9.2 13 19 1023.3 0 20.2 27.1 42.0 110.2 104.4 359.3
31/08 15:40 12.8 74 8.29 8.3 0 11 1023.4 0 19.0 26.1 39.5 103.5 96.4 331.1
31/08 15:30 13 69 7.83 7.5 0 0 1023.5 0 18.0 25.3 37.6 98.3 90.1 309.1
31/08 15:20 13.1 64 7.3 6.5 0 0 1023.6 0 16.8 24.4 35.4 92.7 83.1 284.7
31/08 15:10 13.6 66 7.77 7.4 0 0 1023.6 0 17.8 25.0 37.1 97.0 88.6 304.0
31/08 15:00 13.4 62 7.21 6.3 0 0 1023.7 0 16.6 24.2 35.0 91.4 81.6 279.6
31/08 14:50 14.1 56 6.8 5.5 0 0 1023.6 0 15.7 23.4 33.1 86.4 75.8 259.2
31/08 14:40 14.1 55 6.68 5.2 0 0 1023.7 0 15.5 23.2 32.7 85.2 74.3 254.1
31/08 14:30 13.8 60 7.15 6.2 0 0 1023.8 0 16.5 24.0 34.6 90.3 80.5 275.6
31/08 14:20 13.6 63 7.41 6.7 0 0 1023.9 0 17.1 24.5 35.7 93.2 84.0 287.9
31/08 14:10 13.4 66 7.67 7.2 0 0 1024.1 0 17.6 24.9 36.8 96.2 87.6 300.4
31/08 14:00 14 59 7.12 6.1 0 0 1023.9 0 16.4 23.9 34.4 89.8 79.9 273.6
31/08 13:50 15.2 53 6.88 5.7 0 0 1024.1 0 15.9 23.2 33.0 86.1 75.8 259.2
31/08 13:40 14.9 54 6.88 5.7 0 0 1024.2 0 15.9 23.3 33.1 86.4 76.1 260.2
31/08 13:30 14.5 53 6.59 5 0 0 1024.3 0 15.3 23.0 32.2 84.0 72.9 249.1
31/08 13:20 13.2 59 6.77 5.4 0 0 1024.4 0 15.7 23.6 33.4 87.2 76.3 261.0
31/08 13:10 13.4 66 7.67 7.2 0 0 1024.4 0 17.6 24.9 36.8 96.2 87.6 300.5
31/08 13:00 13.5 57 6.67 5.2 2 15 1024.6 0 15.5 23.4 32.9 85.9 74.8 255.7
31/08 12:50 14.4 54 6.68 5.2 9 19 1024.6 0 15.5 23.1 32.6 85.0 74.1 253.3
31/08 12:40 14.2 57 6.96 5.8 9 20 1024.5 0 16.1 23.6 33.7 88.0 77.8 266.1
31/08 12:30 14.1 56 6.8 5.5 15 22 1024.6 0 15.7 23.4 33.2 86.5 75.9 259.4
31/08 12:20 13.6 59 6.94 5.7 15 20 1024.8 0 16.1 23.8 33.9 88.5 78.1 267.3
31/08 12:10 13.7 59 6.99 5.8 13 20 1025 0 16.2 23.8 34.1 88.9 78.7 269.2
31/08 12:00 13.5 60 7.02 5.9 9 19 1025.1 0 16.2 23.9 34.3 89.5 79.2 271.2
31/08 11:50 13.1 63 7.19 6.2 6 15 1025.3 0 16.6 24.3 35.1 91.7 81.8 280.2
31/08 11:40 12.8 64 7.17 6.2 0 0 1025.5 0 16.6 24.4 35.1 91.8 81.9 280.4
31/08 11:30 12.2 64 6.91 5.6 7 22 1025.5 0 16.0 24.1 34.4 89.8 79.2 270.8
31/08 11:20 12.4 63 6.88 5.6 0 11 1025.4 0 16.0 24.0 34.2 89.3 78.6 268.8
31/08 11:10 12.2 67 7.23 6.3 0 13 1025.3 0 16.7 24.6 35.6 93.1 83.3 285.2
31/08 11:00 11.2 66 6.69 5.1 6 24 1025.1 0 15.6 24.0 34.0 88.6 77.3 264.2
31/08 10:50 11.1 68 6.85 5.4 11 26 1025.1 0 16.0 24.3 34.6 90.4 79.5 271.8
31/08 10:40 11 68 6.81 5.3 11 28 1025.1 0 15.9 24.3 34.5 90.1 79.1 270.3
31/08 10:30 11 67 6.71 5.1 15 30 1025.2 0 15.7 24.1 34.1 89.1 77.8 265.8
31/08 10:20 11.1 68 6.85 5.4 15 33 1025.4 0 16.0 24.3 34.6 90.4 79.5 271.8
31/08 10:10 10.8 68 6.72 5.1 17 28 1025.5 0 15.7 24.2 34.3 89.4 78.1 267.0
31/08 10:00 10.7 69 6.78 5.3 15 28 1025.6 0 15.8 24.3 34.5 90.2 79.0 270.1
31/08 09:50 10.6 69 6.74 5.2 15 26 1025.7 0 15.8 24.3 34.4 89.9 78.6 268.6
31/08 09:40 10.6 71 6.93 5.6 15 30 1025.8 0 16.2 24.6 35.2 91.9 81.1 277.3
31/08 09:30 10.5 71 6.89 5.5 15 28 1025.7 0 16.1 24.5 35.1 91.6 80.7 275.8
31/08 09:20 10.3 70 6.71 5.1 13 26 1025.8 0 15.7 24.3 34.4 89.9 78.5 268.3
31/08 09:10 10.2 70 6.66 5 11 26 1025.9 0 15.6 24.3 34.3 89.5 78.0 266.4
31/08 09:00 10.2 69 6.57 4.8 9 24 1026 0 15.4 24.1 33.9 88.6 76.8 262.3
31/08 08:50 10.2 71 6.76 5.2 9 24 1026.1 0 15.8 24.4 34.7 90.6 79.3 271.0

Last Refresh: 01-Sep-2026 01:07:23

Bureau of Meteorology